ADDS TAF Data INFO
IDs: Format: Raw Decoded Include METARs

Data at: 0108 UTC 16 Aug 2018

KJAX 160056Z 00000KT 10SM FEW045 FEW065 BKN150 OVC250 24/23 A3010 RMK AO2 RAE10 SLP192 OCNL LTGIC DSNT S CB DSNT S P0000 T02440228 $

KJAX 152323Z 1600/1624 VRB03KT P6SM SCT040 SCT100 BKN250
  FM160300 00000KT P6SM SCT100 SCT250
  FM161400 20005KT P6SM SCT025 SCT250
  FM161900 12008KT P6SM VCTS SCT035CB BKN250


KCRG 160053Z 16004KT 10SM CLR 23/23 A3011 RMK AO2 SLP197 T02330233 $

KCRG 152323Z 1600/1624 VRB03KT P6SM VCSH SCT030 SCT100 BKN250
  FM160300 00000KT P6SM SCT100 SCT250
  FM161400 20005KT P6SM SCT025 SCT250
  FM161800 12008KT P6SM VCTS SCT035CB BKN250


KVQQ 160050Z 00000KT 10SM BKN100 23/23 A3010

KVQQ 152323Z 1600/1624 VRB03KT P6SM VCSH SCT035 SCT100 BKN250
  FM160300 00000KT P6SM SCT100 SCT250
  FM161400 20005KT P6SM SCT025 SCT250
  FM161900 12008KT P6SM VCTS SCT035CB BKN250


KGNV 160053Z 00000KT 10SM CLR 24/22 A3013 RMK AO2 SLP199 T02440222

KGNV 152323Z 1600/1624 VRB03KT P6SM VCSH SCT050 SCT100 BKN250
  FM160300 00000KT P6SM SCT100 SCT250
  FM161400 18005KT P6SM SCT025 SCT250
  FM162000 14005KT P6SM VCTS SCT035CB BKN250


KSGJ 160056Z AUTO 30003KT 10SM CLR 24/22 A3013 RMK AO2 LTG DSNT S SLP202 T02440217

KSGJ 152323Z 1600/1624 16006KT P6SM VCSH SCT040 SCT100 BKN250
  FM160300 19004KT P6SM SCT100 SCT250
  FM161400 18006KT P6SM SCT025 SCT250
  FM161900 13011KT P6SM VCTS SCT035CB BKN250


KSSI 160053Z AUTO 24006KT 10SM CLR 27/21 A3010 RMK AO2 SLP194 T02670211

KSSI 152323Z 1600/1624 23004KT P6SM SCT100 SCT250
  FM161300 22006KT P6SM SCT025 SCT250
  FM161700 14009KT P6SM VCTS SCT035CB BKN250